ADDS METAR Data INFO
IDs: Format: Raw Decoded Include TAF

Data at: 0930 UTC 25 Jun 2018

KCKP 250915Z AUTO 12005KT 10SM SCT110 18/17 A2995 RMK AO2 T01800173
KCKP 250855Z AUTO 00000KT 10SM BKN120 18/17 A2995 RMK AO2 60004 T01770172
KCKP 250835Z AUTO 00000KT 10SM BKN120 18/17 A2995 RMK AO2 LTG DSNT SW T01750172
KCKP 250815Z AUTO 16003KT 10SM CLR 18/17 A2995 RMK AO2 T01750173
KCKP 250755Z AUTO 13005KT 10SM SCT100 SCT120 18/17 A2993 RMK AO2 T01750173
KCKP 250735Z AUTO 11006KT 10SM -RA SCT095 OVC110 18/18 A2994 RMK AO2 T01750175
KCKP 250715Z AUTO 09005KT 10SM -RA SCT029 BKN085 OVC120 18/18 A2997 RMK AO2 T01760176
KCKP 250655Z AUTO 08006KT 10SM -RA SCT029 SCT041 OVC085 18/18 A3000 RMK AO2 P0004 T01760176
KCKP 250635Z AUTO 07005KT 10SM -RA SCT031 SCT050 OVC075 18/18 A3003 RMK AO2 P0003 T01780178
KCKP 250615Z AUTO 00000KT 7SM RA SCT019 BKN046 OVC100 18/18 A3004 RMK AO2 LTG DSNT SW P0002 T01800180
KCKP 250555Z AUTO 04004KT 7SM VCTSRA SCT020 BKN047 OVC080 18/18 A3005 RMK AO2 LTG DSNT W P0020 60068 T01800180 10212 20180 402880161
KCKP 250535Z AUTO 34005KT 4SM +TSRA SCT018 BKN026 OVC048 18/18 A3007 RMK AO2 LTG DSNT ALQS P0016 T01810181
KCKP 250515Z AUTO 02004KT 4SM /VCTSRA SCT023 BKN037 OVC070 18/18 A3007 RMK AO2 LTG DSNT ALQS P0007 T01820182
KCKP 250455Z AUTO 01006KT 4SM +TSRA SCT015 BKN031 OVC044 18/18 A3005 RMK AO2 LTG DSNT ALQS P0032 T01820182
KCKP 250435Z AUTO 07003KT 1 1/2SM +TSRA SCT013 BKN022 OVC049 19/19 A3006 RMK AO2 LTG DSNT ALQS P0014 T01850185
KCKP 250415Z AUTO 03004KT 10SM -TSRA SCT028 BKN046 OVC070 19/19 A3004 RMK AO2 LTG DSNT ALQS P0001 T01850185
KCKP 250355Z AUTO 06005KT 10SM VCTSRA SCT018 BKN028 OVC039 19/19 A3004 RMK AO2 LTG DSNT ALQS P0015 T01860185
KCKP 250335Z AUTO 04006KT 1 1/2SM TSRA SCT013 OVC022 19/19 A3004 RMK AO2 LTG DSNT ALQS P0013 T01920190
KCKP 250315Z AUTO 00000KT 10SM -TSRA BKN026 BKN032 OVC060 20/19 A3003 RMK AO2 LTG DSNT ALQS P0001 T01950190
KCKP 250255Z AUTO 10006KT 10SM -RA BKN050 OVC065 19/19 A3000 RMK AO2 LTG DSNT SW THRU NW T01930187
KCKP 250235Z AUTO 08008KT 10SM BKN049 BKN065 BKN120 20/19 A2998 RMK AO2 LTG DSNT W AND NW T01990188
KCKP 250215Z AUTO 09009G16KT 10SM SCT043 SCT049 20/19 A2996 RMK AO2 T02000188
KCKP 250155Z AUTO 10009G18KT 10SM SCT042 SCT050 20/19 A2992 RMK AO2 LTG DSNT E T02020190
KCKP 250135Z AUTO 10007KT 10SM SCT048 SCT120 20/19 A2991 RMK AO2 T02020191
KCKP 250115Z AUTO 08006KT 10SM SCT120 21/20 A2989 RMK AO2 LTG DSNT E AND W T02080198
KCKP 250055Z AUTO 06004KT 10SM VCTS SCT048 SCT110 21/20 A2990 RMK AO2 LTG DSNT SW THRU NW T02100197
KCKP 250035Z AUTO 07003KT 10SM SCT110 21/20 A2990 RMK AO2 LTG DSNT ALQS T02100200
KCKP 250015Z AUTO 01007KT 10SM VCTS CLR 21/20 A2989 RMK AO2 LTG DSNT NE AND W T02070199
KCKP 242355Z AUTO 06003KT 10SM -VCTSRA SCT015 SCT035 BKN070 20/19 A2988 RMK AO2 LTG DSNT ALQS P0009 60009 T02020192 10288 20201
KCKP 242335Z AUTO 11006KT 4SM /VCTSRA SCT012 BKN060 OVC110 22/20 A2988 RMK AO2 LTG DSNT ALQS P0007 T02210197
KCKP 242315Z AUTO 06006KT 5SM +RA SCT021 SCT041 BKN055 23/19 A2987 RMK AO2 LTG DSNT ALQS P0003 T02310188
KCKP 242255Z AUTO 03005KT 10SM SCT029 BKN047 OVC120 23/18 A2989 RMK AO2 LTG DSNT N THRU S T02310178
KCKP 242235Z AUTO 31010G18KT 280V360 10SM SCT029 SCT037 SCT047 23/18 A2988 RMK AO2 LTG DSNT N AND NW T02340184
KCKP 242215Z AUTO 14008KT 10SM CLR 26/19 A2986 RMK AO2 LTG DSNT W THRU N T02560190
KCKP 242155Z AUTO 14007KT 10SM CLR 25/19 A2985 RMK AO2 LTG DSNT W AND NW T02530194
KCKP 242135Z AUTO 14009KT 10SM -DZ CLR 26/19 A2984 RMK AO2 LTG DSNT SE W AND NW T02560193
KCKP 242115Z AUTO 15007KT 10SM CLR 26/19 A2984 RMK AO2 LTG DSNT S THRU N T02560191
KCKP 242055Z AUTO 15009KT 10SM CLR 27/20 A2985 RMK AO2 LTG DSNT N T02740198
KCKP 242035Z AUTO 14011G17KT 10SM SCT038 SCT047 SCT070 27/20 A2986 RMK AO2 LTG DSNT SE AND W T02700202
KCKP 242015Z AUTO 13008KT 10SM SCT038 28/21 A2986 RMK AO2 LTG DSNT SE T02790212
KCKP 241955Z AUTO 16007KT 10SM CLR 29/21 A2986 RMK AO2 LTG DSNT W T02870205
KCKP 241935Z AUTO 14007KT 10SM CLR 28/20 A2986 RMK AO2 LTG DSNT SE T02820204
KCKP 241915Z AUTO 13010KT 10SM SCT120 28/21 A2987 RMK AO2 T02780209
KCKP 241855Z AUTO 14008KT 10SM SCT120 27/21 A2988 RMK AO2 LTG DSNT W T02650208
KCKP 241835Z AUTO 14007KT 10SM BKN120 27/21 A2987 RMK AO2 LTG DSNT N T02680206
KCKP 241815Z AUTO 13006KT 10SM BKN120 27/21 A2987 RMK AO2 T02650205
KCKP 241755Z AUTO 12004KT 10SM SCT120 27/19 A2986 RMK AO2 T02720192 10275 20178
KCKP 241735Z AUTO 14004KT 10SM SCT110 27/20 A2987 RMK AO2 T02730204
KCKP 241715Z AUTO 11005KT 10SM SCT110 27/21 A2987 RMK AO2 T02690205
KCKP 241655Z AUTO 15004KT 10SM CLR 27/20 A2987 RMK AO2 T02650204
KCKP 241635Z AUTO 16004KT 10SM CLR 26/20 A2987 RMK AO2 T02570204
KCKP 241615Z AUTO 14006KT 10SM CLR 26/21 A2987 RMK AO2 T02550206
KCKP 241555Z AUTO 14007KT 10SM CLR 25/21 A2987 RMK AO2 T02510209
KCKP 241535Z AUTO 16006KT 10SM CLR 25/21 A2986 RMK AO2 T02470207
KCKP 241515Z AUTO 00000KT 10SM CLR 24/20 A2985 RMK AO2 T02370199
KCKP 241455Z AUTO 15004KT 10SM CLR 23/20 A2985 RMK AO2 T02310200
KCKP 241435Z AUTO 14004KT 10SM CLR 23/20 A2984 RMK AO2 T02270199
KCKP 241415Z AUTO 00000KT 10SM CLR 22/20 A2985 RMK AO2 T02220197
KCKP 241355Z AUTO 00000KT 10SM CLR 22/19 A2985 RMK AO2 T02160194
KCKP 241335Z AUTO 00000KT 10SM CLR 21/19 A2985 RMK AO2 T02100190
KCKP 241315Z AUTO 00000KT 10SM CLR 20/19 A2985 RMK AO2 T02030188
KCKP 241255Z AUTO 20005KT 10SM CLR 20/19 A2985 RMK AO2 T01970187
KCKP 241235Z AUTO 18005KT 10SM CLR 19/19 A2985 RMK AO2 T01920185
KCKP 241215Z AUTO 18004KT 10SM CLR 19/18 A2984 RMK AO2 T01870183
KCKP 241155Z AUTO 00000KT 10SM CLR 18/18 A2984 RMK AO2 T01770177 10185 20161
KCKP 241135Z AUTO 00000KT 10SM CLR 17/17 A2984 RMK AO2 T01670167
KCKP 241115Z AUTO 00000KT 10SM CLR 16/16 A2980 RMK AO2 LTG DSNT N T01640164
KCKP 241055Z AUTO 00000KT 10SM CLR 16/16 A2978 RMK AO2 T01640164
KCKP 241035Z AUTO 00000KT 10SM CLR 17/17 A2977 RMK AO2 T01660166
KCKP 241015Z AUTO 00000KT 10SM CLR 17/17 A2976 RMK AO2 T01670167
KCKP 240955Z AUTO 00000KT 10SM CLR 17/17 A2977 RMK AO2 T01680168
KCKP 240935Z AUTO 00000KT 10SM CLR 17/17 A2977 RMK AO2 T01700170
KCKP 240915Z AUTO 00000KT 10SM CLR 17/17 A2978 RMK AO2 LTG DSNT NE AND SE T01680168
KCKP 240855Z AUTO 18003KT 10SM CLR 17/17 A2979 RMK AO2 LTG DSNT NE T01660166
KCKP 240835Z AUTO 00000KT 10SM CLR 17/17 A2979 RMK AO2 LTG DSNT SE T01710171
KCKP 240815Z AUTO 00000KT 10SM CLR 17/17 A2979 RMK AO2 LTG DSNT SE T01690168
KCKP 240755Z AUTO 17004KT 10SM CLR 17/17 A2980 RMK AO2 T01720172
KCKP 240735Z AUTO 00000KT 10SM CLR 18/17 A2980 RMK AO2 LTG DSNT S T01760174
KCKP 240715Z AUTO 17004KT 10SM CLR 18/17 A2980 RMK AO2 T01760174
KCKP 240655Z AUTO 00000KT 10SM CLR 18/18 A2979 RMK AO2 T01800175
KCKP 240635Z AUTO 17005KT 10SM CLR 18/18 A2980 RMK AO2 T01810176
KCKP 240615Z AUTO 17006KT 10SM CLR 19/18 A2980 RMK AO2 T01850179
KCKP 240555Z AUTO 18005KT 10SM CLR 18/18 A2980 RMK AO2 T01800177 10235 20178 402550132
KCKP 240535Z AUTO 16004KT 10SM SCT065 18/18 A2980 RMK AO2 T01800177
KCKP 240515Z AUTO 00000KT 10SM BKN065 18/18 A2981 RMK AO2 T01830179
KCKP 240455Z AUTO 15003KT 10SM SCT065 18/18 A2980 RMK AO2 T01830180
KCKP 240435Z AUTO 16003KT 10SM CLR 18/18 A2979 RMK AO2 T01800178
KCKP 240415Z AUTO 14005KT 10SM CLR 19/18 A2979 RMK AO2 T01850180
KCKP 240355Z AUTO 00000KT 10SM CLR 19/18 A2980 RMK AO2 T01850180
KCKP 240335Z AUTO 16004KT 10SM CLR 19/18 A2980 RMK AO2 T01900180
KCKP 240315Z AUTO 17004KT 10SM CLR 19/18 A2980 RMK AO2 T01910181
KCKP 240255Z AUTO 16004KT 10SM CLR 20/18 A2978 RMK AO2 T01970180
KCKP 240235Z AUTO 17005KT 10SM SCT070 20/18 A2977 RMK AO2 T02020181
KCKP 240215Z AUTO 16003KT 10SM SCT070 21/18 A2978 RMK AO2 T02050180
KCKP 240155Z AUTO 17006KT 10SM CLR 21/18 A2977 RMK AO2 T02070180
KCKP 240135Z AUTO 17006KT 10SM CLR 21/19 A2977 RMK AO2 T02110186
KCKP 240115Z AUTO 16004KT 10SM CLR 22/18 A2976 RMK AO2 T02160184
KCKP 240055Z AUTO 18004KT 10SM CLR 22/18 A2976 RMK AO2 LTG DSNT W T02200182
KCKP 240035Z AUTO 19006KT 10SM CLR 22/18 A2975 RMK AO2 T02240180
KCKP 240015Z AUTO 19010KT 10SM CLR 23/18 A2974 RMK AO2 T02340181
KCKP 232355Z AUTO 19007KT 10SM SCT050 23/18 A2974 RMK AO2 T02320178 10255 20230
KCKP 232335Z AUTO 20006KT 10SM BKN050 24/18 A2975 RMK AO2 T02360181
KCKP 232315Z AUTO 21007KT 10SM BKN048 24/18 A2975 RMK AO2 T02380177
KCKP 232255Z AUTO 18010KT 10SM SCT050 25/17 A2975 RMK AO2 T02490173
KCKP 232235Z AUTO 18011KT 10SM SCT055 24/17 A2975 RMK AO2 T02420173
KCKP 232215Z AUTO 18010KT 10SM SCT085 25/17 A2975 RMK AO2 T02520170
KCKP 232155Z AUTO 20009KT 10SM SCT085 25/17 A2975 RMK AO2 T02530174
KCKP 232135Z AUTO 21008KT 10SM SCT049 SCT055 SCT085 25/18 A2975 RMK AO2 T02520175